Weather at Greater Niagara General Hospital Heliport

Public forecast

Using degrees Celsius for public forecast. Weather courtesy of forecast.io.

Closest aviation weather report (METAR) to Greater Niagara General Hospital Heliport

Closest report is Niagara District Airport, 6.2 nm (11.5 km) NW.

2024/07/13 22:00 (retrieved 22 minutes ago)

CYSN 132200Z VRB02KT 15SM FEW060 29/15 A3011 RMK CU1 SLP197 DENSITY ALT 1800FT

Closest aviation forecast (TAF) to Greater Niagara General Hospital Heliport

Closest forecast is Niagara District Airport, 6.2 nm (11.5 km) NW.

2024/07/13 20:00 (retrieved 2 hours ago)

TAF CYSN 131940Z 1320/1401 32005KT P6SM FEW050 RMK NXT FCST BY 141300Z